createdAt,value
2018-08-31T00:00:12.588Z,14.54
2018-08-31T00:02:59.550Z,14.56
2018-08-31T00:04:04.895Z,14.51
2018-08-31T00:05:26.284Z,14.53
2018-08-31T00:08:22.344Z,14.38
2018-08-31T00:09:28.046Z,14.30
2018-08-31T00:10:33.740Z,14.44
2018-08-31T00:11:40.100Z,14.54
2018-08-31T00:12:46.519Z,14.78
2018-08-31T00:13:53.007Z,14.64
2018-08-31T00:14:59.528Z,14.49
2018-08-31T00:16:05.888Z,14.50
2018-08-31T00:17:12.911Z,14.49
2018-08-31T00:18:18.887Z,14.65
2018-08-31T00:19:25.352Z,14.71
2018-08-31T00:20:31.651Z,14.57
2018-08-31T00:21:38.163Z,14.54
2018-08-31T00:22:45.825Z,14.46
2018-08-31T00:23:51.079Z,14.43
2018-08-31T00:24:56.841Z,14.37
2018-08-31T00:28:10.760Z,14.40
2018-08-31T00:29:41.113Z,14.28
2018-08-31T00:32:49.721Z,14.25
2018-08-31T00:33:56.093Z,14.33
2018-08-31T00:35:01.510Z,14.40
2018-08-31T00:36:06.964Z,14.37
2018-08-31T00:37:12.686Z,14.24
2018-08-31T00:38:18.393Z,14.19
2018-08-31T00:39:24.108Z,14.21
2018-08-31T00:40:29.503Z,14.18
2018-08-31T00:41:35.884Z,14.30
2018-08-31T00:42:41.496Z,14.31
2018-08-31T00:43:46.659Z,14.53
2018-08-31T00:44:53.109Z,14.43
2018-08-31T00:45:59.298Z,14.34
2018-08-31T00:47:05.978Z,14.29
2018-08-31T00:48:12.388Z,14.24
2018-08-31T00:49:18.388Z,14.21
2018-08-31T00:50:24.836Z,14.23
2018-08-31T00:51:31.046Z,14.19
2018-08-31T00:52:36.965Z,14.09
2018-08-31T00:53:43.078Z,14.20
2018-08-31T00:54:50.291Z,14.17
2018-08-31T00:55:57.676Z,14.14
2018-08-31T00:57:04.022Z,14.13
2018-08-31T00:58:10.399Z,14.41
2018-08-31T00:59:17.402Z,14.41
2018-08-31T01:00:24.157Z,14.41
2018-08-31T01:01:30.438Z,14.56
2018-08-31T01:02:36.933Z,14.54
2018-08-31T01:03:43.353Z,14.57
2018-08-31T01:04:50.455Z,14.62
2018-08-31T01:05:57.371Z,14.57
2018-08-31T01:07:03.690Z,14.45
2018-08-31T01:08:10.048Z,14.53
2018-08-31T01:09:16.666Z,14.50
2018-08-31T01:10:24.014Z,14.27
2018-08-31T01:11:31.382Z,14.16
2018-08-31T01:12:37.033Z,14.07
2018-08-31T01:13:43.553Z,14.08
2018-08-31T01:14:49.864Z,14.07
2018-08-31T01:15:55.454Z,14.12
2018-08-31T01:17:02.120Z,14.04
2018-08-31T01:18:08.839Z,14.21
2018-08-31T01:19:14.972Z,14.32
2018-08-31T01:20:21.706Z,14.28
2018-08-31T01:21:27.405Z,14.47
2018-08-31T01:22:33.977Z,14.39
2018-08-31T01:23:40.754Z,14.45
2018-08-31T01:24:46.979Z,14.06
2018-08-31T01:25:54.609Z,14.02
2018-08-31T01:27:00.897Z,14.09
2018-08-31T01:28:07.822Z,14.06
2018-08-31T01:29:14.977Z,14.18
2018-08-31T01:30:22.174Z,14.31
2018-08-31T01:31:28.580Z,14.25
2018-08-31T01:32:35.745Z,14.20
2018-08-31T01:33:43.205Z,14.12
2018-08-31T01:34:49.193Z,14.05
2018-08-31T01:35:55.626Z,14.07
2018-08-31T01:37:01.692Z,13.96
2018-08-31T01:38:08.718Z,14.07
2018-08-31T01:39:15.118Z,14.13
2018-08-31T01:40:21.618Z,13.91
2018-08-31T01:41:29.542Z,13.87
2018-08-31T01:42:36.101Z,13.98
2018-08-31T01:43:42.854Z,13.99
2018-08-31T01:44:49.176Z,13.90
2018-08-31T01:45:55.657Z,14.06
2018-08-31T01:47:02.660Z,14.16
2018-08-31T01:48:09.600Z,14.11
2018-08-31T01:49:16.904Z,14.07
2018-08-31T01:50:23.295Z,14.04
2018-08-31T01:51:29.722Z,14.03
2018-08-31T01:52:36.137Z,13.96
2018-08-31T01:53:43.149Z,13.99
2018-08-31T01:54:50.118Z,13.96
2018-08-31T01:55:56.382Z,13.90
2018-08-31T01:57:02.829Z,13.88
2018-08-31T01:58:09.657Z,13.93
2018-08-31T01:59:17.150Z,14.03
2018-08-31T02:00:23.937Z,13.94
2018-08-31T02:01:30.177Z,13.92
2018-08-31T02:02:36.471Z,13.85
2018-08-31T02:03:43.352Z,13.89
2018-08-31T02:04:49.740Z,13.87
2018-08-31T02:05:56.231Z,13.90
2018-08-31T02:07:02.001Z,14.07
2018-08-31T02:08:08.817Z,14.16
2018-08-31T02:09:14.268Z,14.24
2018-08-31T02:10:20.704Z,14.37
2018-08-31T02:11:27.745Z,14.46
2018-08-31T02:12:34.367Z,14.21
2018-08-31T02:13:41.029Z,14.11
2018-08-31T02:14:47.668Z,14.09
2018-08-31T02:15:54.217Z,14.13
2018-08-31T02:17:00.212Z,13.96
2018-08-31T02:18:06.848Z,13.92
2018-08-31T02:19:13.195Z,14.12
2018-08-31T02:20:20.534Z,14.22
2018-08-31T02:21:26.457Z,14.17
2018-08-31T02:22:32.934Z,13.93
2018-08-31T02:23:39.503Z,13.95
2018-08-31T02:24:46.044Z,13.84
2018-08-31T02:25:52.711Z,13.67
2018-08-31T02:26:59.083Z,13.63
2018-08-31T02:28:06.730Z,13.67
2018-08-31T02:29:13.064Z,13.68
2018-08-31T02:30:19.894Z,13.59
2018-08-31T02:31:26.280Z,13.73
2018-08-31T02:32:33.314Z,13.83
2018-08-31T02:33:39.839Z,13.71
2018-08-31T02:34:46.159Z,13.64
2018-08-31T02:35:53.257Z,13.66
2018-08-31T02:36:59.919Z,13.78
2018-08-31T02:38:06.234Z,13.72
2018-08-31T02:39:13.062Z,13.65
2018-08-31T02:40:19.516Z,13.66
2018-08-31T02:41:26.559Z,13.52
2018-08-31T02:42:33.760Z,13.39
2018-08-31T02:43:40.926Z,13.41
2018-08-31T02:44:47.172Z,13.48
2018-08-31T02:45:53.670Z,13.70
2018-08-31T02:47:00.472Z,13.75
2018-08-31T02:48:07.429Z,13.67
2018-08-31T02:49:14.678Z,13.69
2018-08-31T02:50:21.249Z,13.71
2018-08-31T02:51:27.644Z,13.59
2018-08-31T02:52:34.056Z,13.28
2018-08-31T02:53:40.360Z,13.36
2018-08-31T02:54:47.113Z,13.31
2018-08-31T02:55:53.773Z,13.19
2018-08-31T02:57:00.115Z,13.15
2018-08-31T02:58:06.086Z,13.08
2018-08-31T02:59:12.525Z,12.93
2018-08-31T03:00:18.964Z,12.81
2018-08-31T03:01:25.277Z,13.04
2018-08-31T03:02:31.444Z,13.11
2018-08-31T03:03:37.973Z,13.02
2018-08-31T03:04:44.352Z,12.99
2018-08-31T03:05:50.743Z,13.17
2018-08-31T03:06:57.040Z,13.19
2018-08-31T03:08:03.320Z,13.14
2018-08-31T03:09:09.712Z,13.01
2018-08-31T03:10:16.121Z,13.00
2018-08-31T03:11:22.282Z,12.86
2018-08-31T03:12:28.631Z,12.76
2018-08-31T03:13:34.987Z,12.77
2018-08-31T03:14:41.436Z,12.57
2018-08-31T03:15:47.824Z,12.54
2018-08-31T03:16:54.219Z,12.59
2018-08-31T03:18:00.747Z,12.50
2018-08-31T03:19:07.123Z,12.54
2018-08-31T03:20:13.462Z,12.53
2018-08-31T03:21:19.972Z,12.57
2018-08-31T03:22:26.774Z,12.44
2018-08-31T03:23:33.224Z,12.37
2018-08-31T03:24:43.696Z,12.37
2018-08-31T03:25:50.059Z,12.36
2018-08-31T03:26:56.422Z,12.28
2018-08-31T03:28:02.768Z,12.23
2018-08-31T03:29:09.202Z,12.34
2018-08-31T03:30:15.589Z,12.39
2018-08-31T03:31:21.917Z,12.38
2018-08-31T03:32:27.989Z,12.04
2018-08-31T03:33:34.532Z,12.20
2018-08-31T03:34:40.977Z,12.22
2018-08-31T03:35:47.397Z,12.15
2018-08-31T03:36:54.350Z,12.24
2018-08-31T03:38:01.226Z,12.17
2018-08-31T03:39:07.371Z,12.10
2018-08-31T03:40:13.778Z,12.07
2018-08-31T03:41:20.157Z,11.96
2018-08-31T03:42:26.574Z,12.09
2018-08-31T03:43:33.047Z,12.06
2018-08-31T03:44:39.340Z,12.13
2018-08-31T03:45:46.074Z,12.14
2018-08-31T03:46:53.038Z,12.08
2018-08-31T03:47:59.479Z,11.85
2018-08-31T03:49:05.185Z,11.72
2018-08-31T03:50:11.584Z,11.68
2018-08-31T03:51:18.021Z,11.65
2018-08-31T03:52:24.017Z,11.70
2018-08-31T03:53:30.179Z,11.68
2018-08-31T03:54:36.396Z,11.83
2018-08-31T03:55:42.859Z,11.91
2018-08-31T03:56:49.175Z,11.88
2018-08-31T03:57:55.563Z,11.80
2018-08-31T03:59:02.011Z,11.66
2018-08-31T04:00:07.756Z,11.54
2018-08-31T04:01:14.119Z,11.59
2018-08-31T04:02:20.506Z,11.62
2018-08-31T04:03:26.922Z,11.69
2018-08-31T04:04:33.342Z,11.81
2018-08-31T04:05:39.870Z,11.81
2018-08-31T04:06:46.232Z,11.71
2018-08-31T04:07:53.163Z,11.84
2018-08-31T04:08:59.453Z,11.82
2018-08-31T04:10:05.597Z,11.93
2018-08-31T04:11:12.036Z,11.83
2018-08-31T04:12:19.270Z,11.74
2018-08-31T04:13:25.683Z,11.69
2018-08-31T04:14:32.074Z,11.57
2018-08-31T04:15:38.386Z,11.64
2018-08-31T04:16:44.819Z,11.60
2018-08-31T04:17:51.264Z,11.60
2018-08-31T04:18:57.424Z,11.71
2018-08-31T04:20:03.488Z,11.96
2018-08-31T04:21:10.862Z,11.94
2018-08-31T04:22:17.481Z,12.12
2018-08-31T04:23:24.104Z,12.17
2018-08-31T04:24:30.667Z,12.08
2018-08-31T04:25:37.077Z,12.16
2018-08-31T04:26:44.137Z,12.00
2018-08-31T04:27:50.516Z,12.04
2018-08-31T04:28:56.927Z,12.06
2018-08-31T04:30:03.201Z,11.99
2018-08-31T04:31:10.256Z,11.89
2018-08-31T04:32:16.682Z,11.88
2018-08-31T04:33:23.104Z,11.87
2018-08-31T04:34:29.520Z,11.98
2018-08-31T04:35:36.122Z,11.84
2018-08-31T04:36:43.320Z,11.61
2018-08-31T04:37:49.577Z,11.59
2018-08-31T04:38:55.968Z,11.71
2018-08-31T04:40:03.341Z,11.66
2018-08-31T04:41:09.692Z,11.84
2018-08-31T04:42:16.194Z,11.74
2018-08-31T04:43:22.317Z,11.78
2018-08-31T04:44:28.888Z,12.02
2018-08-31T04:45:35.188Z,12.03
2018-08-31T04:46:41.330Z,11.87
2018-08-31T04:47:47.817Z,12.03
2018-08-31T04:48:54.073Z,12.11
2018-08-31T04:50:00.488Z,11.95
2018-08-31T04:51:06.820Z,11.90
2018-08-31T04:52:13.261Z,11.73
2018-08-31T04:53:19.640Z,11.69
2018-08-31T04:54:26.066Z,11.67
2018-08-31T04:55:32.413Z,11.69
2018-08-31T04:56:39.737Z,11.74
2018-08-31T04:57:46.176Z,11.88
2018-08-31T04:58:52.614Z,11.94
2018-08-31T04:59:59.163Z,12.07
2018-08-31T05:01:10.125Z,12.02
2018-08-31T05:02:16.537Z,12.13
2018-08-31T05:03:22.220Z,12.08
2018-08-31T05:04:28.810Z,12.25
2018-08-31T05:05:35.101Z,12.24
2018-08-31T05:06:41.549Z,12.26
2018-08-31T05:07:48.122Z,12.22
2018-08-31T05:08:55.616Z,12.38
2018-08-31T05:10:02.435Z,12.37
2018-08-31T05:11:08.866Z,12.38
2018-08-31T05:12:15.256Z,12.52
2018-08-31T05:13:20.648Z,12.45
2018-08-31T05:14:26.950Z,12.41
2018-08-31T05:15:33.316Z,12.50
2018-08-31T05:16:39.456Z,12.47
2018-08-31T05:17:45.628Z,12.62
2018-08-31T05:18:51.880Z,12.68
2018-08-31T05:19:58.331Z,12.77
2018-08-31T05:21:04.603Z,12.69
2018-08-31T05:22:11.055Z,12.68
2018-08-31T05:23:17.528Z,12.57
2018-08-31T05:24:24.382Z,12.54
2018-08-31T05:25:30.704Z,12.51
2018-08-31T05:26:37.008Z,12.57
2018-08-31T05:27:43.038Z,12.51
2018-08-31T05:28:49.458Z,12.51
2018-08-31T05:29:55.884Z,12.56
2018-08-31T05:31:02.596Z,12.51
2018-08-31T05:32:09.177Z,12.71
2018-08-31T05:33:15.357Z,12.78
2018-08-31T05:34:21.496Z,12.71
2018-08-31T05:35:27.905Z,12.67
2018-08-31T05:36:34.198Z,12.76
2018-08-31T05:37:40.557Z,12.79
2018-08-31T05:38:46.604Z,12.85
2018-08-31T05:39:53.038Z,13.15
2018-08-31T05:40:59.509Z,13.29
2018-08-31T05:42:05.886Z,13.35
2018-08-31T05:43:12.199Z,13.30
2018-08-31T05:44:18.650Z,13.56
2018-08-31T05:45:25.000Z,13.41
2018-08-31T05:46:31.338Z,13.29
2018-08-31T05:47:37.729Z,13.25
2018-08-31T05:48:44.192Z,13.22
2018-08-31T05:49:50.485Z,13.32
2018-08-31T05:50:56.778Z,13.33
2018-08-31T05:52:03.187Z,13.43
2018-08-31T05:53:09.515Z,13.39
2018-08-31T05:54:15.958Z,13.59
2018-08-31T05:55:22.229Z,13.61
2018-08-31T05:56:28.326Z,13.66
2018-08-31T05:57:34.739Z,13.57
2018-08-31T05:58:41.309Z,13.65
2018-08-31T05:59:47.573Z,13.60
2018-08-31T06:00:54.007Z,13.56
2018-08-31T06:02:00.390Z,13.51
2018-08-31T06:03:07.808Z,13.58
2018-08-31T06:04:14.197Z,13.77
2018-08-31T06:05:20.457Z,13.95
2018-08-31T06:06:26.804Z,13.98
2018-08-31T06:07:32.852Z,14.08
2018-08-31T06:08:38.968Z,14.21
2018-08-31T06:09:45.016Z,14.12
2018-08-31T06:10:52.253Z,14.09
2018-08-31T06:11:58.607Z,13.86
2018-08-31T06:13:04.929Z,13.89
2018-08-31T06:14:11.396Z,13.88
2018-08-31T06:15:17.341Z,13.96
2018-08-31T06:16:24.618Z,14.11
2018-08-31T06:17:30.971Z,14.08
2018-08-31T06:18:37.380Z,13.95
2018-08-31T06:19:43.686Z,13.96
2018-08-31T06:20:50.571Z,14.02
2018-08-31T06:21:56.858Z,13.95
2018-08-31T06:23:03.237Z,14.04
2018-08-31T06:24:09.620Z,14.13
2018-08-31T06:25:16.012Z,14.08
2018-08-31T06:26:22.112Z,14.10
2018-08-31T06:27:28.552Z,14.12
2018-08-31T06:28:34.855Z,14.18
2018-08-31T06:29:41.303Z,14.16
2018-08-31T06:30:47.584Z,14.12
2018-08-31T06:31:53.899Z,14.09
2018-08-31T06:33:00.307Z,14.30
2018-08-31T06:34:06.832Z,14.49
2018-08-31T06:35:13.189Z,14.40
2018-08-31T06:36:20.049Z,14.31
2018-08-31T06:37:26.500Z,14.25
2018-08-31T06:38:32.781Z,14.31
2018-08-31T06:39:39.406Z,14.30
2018-08-31T06:40:45.747Z,14.52
2018-08-31T06:41:52.336Z,14.45
2018-08-31T06:42:58.803Z,14.48
2018-08-31T06:44:04.566Z,14.71
2018-08-31T06:45:10.998Z,14.65
2018-08-31T06:46:17.276Z,14.66
2018-08-31T06:47:23.682Z,14.76
2018-08-31T06:48:30.019Z,14.73
2018-08-31T06:49:36.459Z,14.73
2018-08-31T06:50:42.871Z,14.67
2018-08-31T06:51:49.164Z,14.60
2018-08-31T06:52:55.763Z,14.51
2018-08-31T06:54:02.416Z,14.64
2018-08-31T06:55:08.499Z,14.63
2018-08-31T06:56:14.937Z,14.67
2018-08-31T06:57:21.225Z,14.79
2018-08-31T06:58:27.554Z,14.70
2018-08-31T06:59:33.924Z,14.84
2018-08-31T07:00:40.149Z,14.80
2018-08-31T07:01:46.279Z,14.68
2018-08-31T07:02:52.286Z,14.57
2018-08-31T07:03:58.314Z,14.62
2018-08-31T07:05:04.037Z,14.62
2018-08-31T07:06:10.417Z,14.70
2018-08-31T07:07:16.681Z,15.04
2018-08-31T07:08:22.785Z,15.03
2018-08-31T07:09:29.016Z,14.86
2018-08-31T07:10:35.638Z,14.78
2018-08-31T07:11:41.747Z,15.05
2018-08-31T07:12:48.117Z,15.05
2018-08-31T07:13:54.478Z,15.08
2018-08-31T07:15:00.808Z,15.13
2018-08-31T07:16:07.120Z,15.16
2018-08-31T07:17:13.460Z,15.11
2018-08-31T07:18:19.884Z,15.23
2018-08-31T07:19:27.018Z,15.27
2018-08-31T07:20:33.683Z,15.17
2018-08-31T07:21:40.193Z,15.10
2018-08-31T07:22:46.618Z,15.22
2018-08-31T07:23:53.047Z,15.20
2018-08-31T07:24:59.468Z,15.21
2018-08-31T07:26:05.770Z,15.30
2018-08-31T07:27:12.053Z,15.15
2018-08-31T07:28:18.497Z,15.21
2018-08-31T07:29:24.809Z,15.24
2018-08-31T07:30:31.546Z,15.16
2018-08-31T07:31:37.812Z,15.25
2018-08-31T07:32:44.223Z,15.40
2018-08-31T07:33:50.581Z,15.67
2018-08-31T07:34:56.869Z,15.59
2018-08-31T07:36:03.199Z,15.30
2018-08-31T07:37:09.598Z,15.44
2018-08-31T07:38:16.005Z,15.48
2018-08-31T07:39:22.413Z,15.67
2018-08-31T07:40:28.761Z,15.89
2018-08-31T07:41:35.168Z,15.95
2018-08-31T07:42:41.592Z,16.12
2018-08-31T07:43:47.861Z,16.16
2018-08-31T07:44:54.296Z,16.04
2018-08-31T07:46:00.605Z,15.90
2018-08-31T07:47:06.983Z,15.95
2018-08-31T07:48:13.489Z,16.08
2018-08-31T07:49:19.863Z,15.81
2018-08-31T07:50:26.268Z,15.67
2018-08-31T07:51:32.568Z,15.74
2018-08-31T07:52:38.973Z,15.84
2018-08-31T07:53:45.468Z,16.12
2018-08-31T07:54:52.017Z,16.23
2018-08-31T07:55:59.064Z,16.26
2018-08-31T07:57:05.359Z,16.03
2018-08-31T07:58:11.546Z,15.91
2018-08-31T07:59:17.982Z,15.78
2018-08-31T08:00:24.438Z,15.69
2018-08-31T08:01:30.804Z,15.89
2018-08-31T08:02:37.873Z,15.93
2018-08-31T08:03:44.139Z,15.99
2018-08-31T08:04:50.564Z,16.06
2018-08-31T08:05:57.004Z,16.09
2018-08-31T08:07:03.371Z,16.17
2018-08-31T08:08:09.843Z,16.25
2018-08-31T08:09:16.220Z,16.16
2018-08-31T08:10:22.626Z,16.09
2018-08-31T08:11:29.093Z,16.11
2018-08-31T08:12:35.363Z,15.94
2018-08-31T08:13:41.710Z,15.83
2018-08-31T08:14:48.094Z,16.08
2018-08-31T08:15:54.633Z,16.16
2018-08-31T08:17:00.892Z,16.35
2018-08-31T08:18:06.946Z,16.24
2018-08-31T08:19:13.497Z,16.09
2018-08-31T08:20:19.645Z,16.00
2018-08-31T08:21:25.403Z,15.92
2018-08-31T08:22:31.064Z,15.88
2018-08-31T08:23:37.447Z,15.89
2018-08-31T08:24:43.791Z,16.14
2018-08-31T08:25:50.124Z,15.86
2018-08-31T08:26:56.487Z,15.98
2018-08-31T08:28:02.879Z,16.00
2018-08-31T08:29:09.358Z,16.25
2018-08-31T08:30:15.624Z,16.19
2018-08-31T08:31:22.089Z,16.32
2018-08-31T08:32:28.361Z,16.47
2018-08-31T08:33:34.764Z,16.61
2018-08-31T08:34:41.177Z,16.42
2018-08-31T08:35:47.592Z,16.21
2018-08-31T08:36:53.884Z,16.18
2018-08-31T08:37:59.944Z,15.97
2018-08-31T08:39:06.233Z,16.01
2018-08-31T08:40:12.281Z,16.16
2018-08-31T08:41:18.690Z,16.17
2018-08-31T08:42:24.856Z,16.40
2018-08-31T08:43:31.402Z,16.64
2018-08-31T08:44:37.092Z,16.80
2018-08-31T08:45:43.571Z,16.75
2018-08-31T08:46:49.949Z,16.63
2018-08-31T08:47:56.230Z,16.48
2018-08-31T08:49:02.615Z,16.40
2018-08-31T08:50:08.241Z,16.58
2018-08-31T08:51:14.668Z,16.79
2018-08-31T08:52:21.098Z,16.74
2018-08-31T08:53:27.466Z,16.77
2018-08-31T08:54:33.917Z,16.83
2018-08-31T08:55:39.934Z,16.88
2018-08-31T08:56:46.258Z,16.43
2018-08-31T08:57:52.629Z,16.18
2018-08-31T08:58:58.919Z,16.12
2018-08-31T09:00:05.474Z,16.34
2018-08-31T09:01:12.990Z,16.32
2018-08-31T09:02:19.324Z,16.38
2018-08-31T09:03:26.412Z,16.50
2018-08-31T09:04:32.832Z,16.62
2018-08-31T09:05:39.121Z,16.71
2018-08-31T09:06:45.697Z,16.52
2018-08-31T09:07:52.025Z,16.44
2018-08-31T09:08:58.295Z,16.54
2018-08-31T09:10:04.121Z,16.58
2018-08-31T09:11:10.168Z,16.70
2018-08-31T09:12:16.669Z,16.61
2018-08-31T09:13:22.968Z,16.73
2018-08-31T09:14:29.338Z,16.85
2018-08-31T09:15:35.451Z,17.09
2018-08-31T09:16:41.887Z,17.22
2018-08-31T09:17:47.997Z,17.32
2018-08-31T09:18:54.439Z,17.33
2018-08-31T09:20:00.685Z,17.14
2018-08-31T09:21:06.764Z,17.15
2018-08-31T09:22:12.891Z,17.07
2018-08-31T09:23:20.085Z,17.34
2018-08-31T09:24:26.455Z,17.55
2018-08-31T09:25:32.887Z,17.65
2018-08-31T09:26:39.813Z,17.70
2018-08-31T09:27:46.207Z,17.72
2018-08-31T09:28:52.629Z,17.91
2018-08-31T09:29:59.153Z,17.94
2018-08-31T09:31:05.323Z,17.93
2018-08-31T09:32:11.529Z,17.90
2018-08-31T09:33:17.825Z,17.95
2018-08-31T09:34:24.205Z,17.95
2018-08-31T09:35:30.794Z,17.90
2018-08-31T09:36:37.210Z,17.78
2018-08-31T09:37:44.061Z,17.74
2018-08-31T09:38:50.383Z,18.17
2018-08-31T09:39:56.714Z,18.23
2018-08-31T09:41:02.765Z,18.37
2018-08-31T09:42:09.175Z,18.28
2018-08-31T09:43:15.321Z,18.10
2018-08-31T09:44:21.621Z,18.16
2018-08-31T09:45:27.916Z,18.21
2018-08-31T09:46:34.339Z,18.23
2018-08-31T09:47:40.679Z,18.00
2018-08-31T09:48:47.073Z,17.99
2018-08-31T09:49:53.497Z,17.97
2018-08-31T09:50:59.930Z,17.88
2018-08-31T09:52:06.348Z,18.02
2018-08-31T09:53:12.584Z,17.88
2018-08-31T09:54:19.048Z,18.05
2018-08-31T09:55:25.359Z,18.35
2018-08-31T09:56:31.777Z,18.46
2018-08-31T09:57:38.211Z,18.61
2018-08-31T09:58:44.443Z,18.18
2018-08-31T09:59:50.699Z,18.24
2018-08-31T10:00:56.882Z,17.96
2018-08-31T10:02:03.237Z,17.68
2018-08-31T10:03:09.404Z,17.85
2018-08-31T10:04:15.864Z,18.06
2018-08-31T10:05:22.210Z,18.09
2018-08-31T10:06:28.577Z,18.25
2018-08-31T10:07:34.917Z,18.08
2018-08-31T10:08:41.201Z,18.06
2018-08-31T10:09:47.601Z,18.09
2018-08-31T10:10:54.099Z,17.93
2018-08-31T10:12:00.677Z,18.13
2018-08-31T10:13:07.331Z,18.20
2018-08-31T10:14:13.735Z,18.21
2018-08-31T10:15:19.873Z,18.39
2018-08-31T10:16:26.108Z,18.32
2018-08-31T10:17:32.447Z,17.97
2018-08-31T10:18:38.777Z,18.24
2018-08-31T10:19:45.378Z,18.39
2018-08-31T10:20:51.780Z,18.32
2018-08-31T10:21:58.289Z,18.64
2018-08-31T10:23:04.224Z,18.56
2018-08-31T10:24:10.593Z,18.60
2018-08-31T10:25:17.044Z,18.46
2018-08-31T10:26:23.304Z,18.56
2018-08-31T10:27:29.761Z,18.65
2018-08-31T10:28:36.037Z,18.83
2018-08-31T10:29:42.461Z,18.90
2018-08-31T10:30:48.904Z,19.06
2018-08-31T10:31:55.380Z,18.86
2018-08-31T10:33:01.847Z,18.88
2018-08-31T10:34:08.135Z,18.90
2018-08-31T10:35:14.523Z,18.81
2018-08-31T10:36:20.935Z,18.61
2018-08-31T10:37:26.991Z,18.49
2018-08-31T10:38:33.375Z,18.68
2018-08-31T10:39:41.649Z,18.62
2018-08-31T10:40:48.020Z,18.98
2018-08-31T10:41:54.340Z,19.05
2018-08-31T10:43:00.668Z,18.70
2018-08-31T10:44:06.962Z,18.58
2018-08-31T10:45:13.346Z,18.76
2018-08-31T10:46:19.799Z,18.85
2018-08-31T10:47:27.749Z,18.96
2018-08-31T10:48:34.148Z,18.85
2018-08-31T10:49:40.288Z,18.86
2018-08-31T10:50:46.720Z,19.00
2018-08-31T10:51:53.164Z,19.07
2018-08-31T10:52:59.536Z,19.15
2018-08-31T10:54:05.461Z,19.08
2018-08-31T10:55:11.819Z,19.39
2018-08-31T10:56:18.236Z,19.09
2018-08-31T10:57:24.602Z,19.12
2018-08-31T10:58:30.988Z,19.30
2018-08-31T10:59:37.259Z,19.50
2018-08-31T11:00:43.689Z,19.42
2018-08-31T11:01:49.994Z,19.41
2018-08-31T11:02:57.042Z,19.29
2018-08-31T11:04:03.477Z,19.44
2018-08-31T11:05:09.797Z,19.13
2018-08-31T11:06:16.101Z,19.00
2018-08-31T11:07:22.475Z,19.03
2018-08-31T11:08:28.882Z,19.14
2018-08-31T11:09:35.219Z,19.20
2018-08-31T11:10:41.686Z,19.17
2018-08-31T11:11:48.031Z,19.33
2018-08-31T11:12:54.423Z,19.25
2018-08-31T11:14:00.964Z,19.20
2018-08-31T11:15:06.606Z,19.20
2018-08-31T11:16:13.080Z,19.29
2018-08-31T11:17:19.383Z,19.34
2018-08-31T11:18:25.368Z,19.23
2018-08-31T11:19:31.826Z,19.45
2018-08-31T11:20:38.858Z,19.03
2018-08-31T11:21:45.485Z,18.92
2018-08-31T11:22:51.764Z,19.17
2018-08-31T11:23:58.207Z,19.03
2018-08-31T11:25:03.798Z,18.98
2018-08-31T11:26:10.228Z,19.09
2018-08-31T11:27:16.508Z,19.05
2018-08-31T11:28:22.920Z,19.07
2018-08-31T11:29:29.268Z,18.93
2018-08-31T11:30:35.650Z,19.14
2018-08-31T11:31:42.095Z,19.25
2018-08-31T11:32:48.515Z,19.48
2018-08-31T11:33:55.607Z,19.57
2018-08-31T11:35:02.311Z,19.74
2018-08-31T11:36:08.645Z,19.72
2018-08-31T11:37:14.707Z,19.98
2018-08-31T11:38:21.496Z,20.01
2018-08-31T11:39:28.552Z,20.05
2018-08-31T11:40:34.722Z,20.15
2018-08-31T11:41:41.138Z,20.11
2018-08-31T11:42:47.595Z,19.97
2018-08-31T11:43:54.313Z,20.14
2018-08-31T11:45:00.713Z,20.34
2018-08-31T11:46:06.794Z,20.33
2018-08-31T11:47:13.982Z,20.17
2018-08-31T11:48:21.065Z,20.10
2018-08-31T11:49:27.952Z,20.18
2018-08-31T11:50:34.612Z,19.92
2018-08-31T11:51:41.682Z,19.82
2018-08-31T11:52:50.710Z,19.97
2018-08-31T11:53:57.520Z,20.34
2018-08-31T11:55:03.756Z,20.37
2018-08-31T11:56:10.818Z,20.47
2018-08-31T11:57:17.961Z,20.00
2018-08-31T11:58:24.943Z,19.74
2018-08-31T11:59:31.021Z,19.49
2018-08-31T12:00:37.460Z,19.47
2018-08-31T12:01:43.847Z,19.50
2018-08-31T12:02:50.657Z,19.11
2018-08-31T12:03:57.883Z,19.23
2018-08-31T12:05:04.207Z,19.19
2018-08-31T12:06:11.339Z,19.00
2018-08-31T12:07:17.631Z,19.09
2018-08-31T12:08:25.425Z,19.32
2018-08-31T12:09:32.808Z,19.28
2018-08-31T12:10:40.379Z,19.20
2018-08-31T12:11:46.925Z,18.86
2018-08-31T12:12:53.321Z,18.84
2018-08-31T12:13:59.645Z,19.02
2018-08-31T12:15:05.361Z,19.34
2018-08-31T12:16:11.630Z,19.79
2018-08-31T12:17:18.987Z,19.64
2018-08-31T12:18:25.215Z,19.67
2018-08-31T12:19:31.009Z,19.73
2018-08-31T12:20:37.560Z,19.78
2018-08-31T12:21:43.627Z,19.96
2018-08-31T12:22:50.016Z,20.16
2018-08-31T12:23:56.672Z,20.36
2018-08-31T12:25:03.068Z,20.51
2018-08-31T12:26:09.141Z,20.49
2018-08-31T12:27:15.940Z,20.47
2018-08-31T12:28:23.461Z,20.49
2018-08-31T12:29:29.516Z,20.52
2018-08-31T12:30:35.638Z,20.62
2018-08-31T12:31:42.067Z,20.08
2018-08-31T12:32:48.490Z,20.01
2018-08-31T12:33:54.919Z,20.03
2018-08-31T12:35:01.341Z,20.26
2018-08-31T12:36:08.018Z,20.33
2018-08-31T12:37:14.421Z,20.76
2018-08-31T12:38:20.839Z,20.94
2018-08-31T12:39:27.337Z,20.97
2018-08-31T12:40:33.685Z,21.04
2018-08-31T12:41:40.592Z,20.96
2018-08-31T12:42:47.034Z,20.70
2018-08-31T12:43:53.536Z,20.40
2018-08-31T12:45:00.161Z,19.88
2018-08-31T12:46:06.591Z,19.68
2018-08-31T12:47:12.989Z,19.88
2018-08-31T12:48:19.369Z,20.37
2018-08-31T12:49:25.582Z,20.52
2018-08-31T12:50:32.834Z,20.64
2018-08-31T12:51:39.269Z,20.38
2018-08-31T12:52:45.693Z,20.33
2018-08-31T12:53:52.065Z,20.31
2018-08-31T12:54:58.527Z,20.12
2018-08-31T12:56:04.937Z,19.97
2018-08-31T12:57:11.382Z,20.19
2018-08-31T12:58:17.748Z,20.47
2018-08-31T12:59:24.156Z,20.10
2018-08-31T13:00:30.079Z,20.02
2018-08-31T13:01:36.731Z,20.02
2018-08-31T13:02:43.823Z,20.07
2018-08-31T13:03:50.324Z,20.21
2018-08-31T13:04:56.686Z,20.32
2018-08-31T13:06:03.792Z,20.33
2018-08-31T13:07:10.198Z,20.46
2018-08-31T13:08:16.237Z,20.51
2018-08-31T13:09:22.957Z,20.45
2018-08-31T13:10:29.448Z,20.09
2018-08-31T13:11:35.852Z,20.26
2018-08-31T13:12:43.014Z,20.81
2018-08-31T13:13:49.526Z,21.13
2018-08-31T13:14:56.048Z,21.34
2018-08-31T13:16:02.236Z,21.54
2018-08-31T13:17:08.548Z,21.65
2018-08-31T13:18:14.616Z,21.58
2018-08-31T13:19:21.096Z,21.25
2018-08-31T13:20:27.036Z,20.64
2018-08-31T13:21:33.845Z,20.80
2018-08-31T13:22:39.780Z,20.51
2018-08-31T13:23:46.212Z,19.91
2018-08-31T13:24:52.300Z,20.22
2018-08-31T13:25:58.533Z,20.25
2018-08-31T13:27:04.056Z,20.11
2018-08-31T13:28:10.525Z,20.23
2018-08-31T13:29:17.182Z,20.26
2018-08-31T13:30:23.581Z,19.99
2018-08-31T13:31:30.026Z,20.06
2018-08-31T13:32:36.598Z,20.11
2018-08-31T13:33:43.624Z,20.59
2018-08-31T13:34:50.656Z,20.82
2018-08-31T13:35:57.098Z,20.55
2018-08-31T13:37:03.578Z,20.83
2018-08-31T13:38:10.023Z,20.84
2018-08-31T13:39:16.951Z,20.82
2018-08-31T13:40:24.247Z,20.81
2018-08-31T13:41:30.681Z,20.82
2018-08-31T13:42:38.253Z,20.92
2018-08-31T13:43:44.737Z,20.86
2018-08-31T13:44:51.269Z,20.89
2018-08-31T13:45:57.708Z,20.69
2018-08-31T13:47:04.260Z,20.50
2018-08-31T13:48:10.592Z,21.07
2018-08-31T13:49:17.028Z,21.42
2018-08-31T13:50:23.460Z,21.42
2018-08-31T13:51:29.859Z,21.60
2018-08-31T13:52:36.050Z,21.58
2018-08-31T13:53:42.350Z,21.60
2018-08-31T13:54:48.795Z,21.62
2018-08-31T13:55:55.105Z,21.90
2018-08-31T13:57:01.489Z,21.77
2018-08-31T13:58:08.023Z,21.79
2018-08-31T13:59:14.197Z,21.45
2018-08-31T14:00:20.659Z,20.91
2018-08-31T14:01:27.175Z,20.40
2018-08-31T14:02:33.295Z,20.50
2018-08-31T14:03:39.819Z,20.48
2018-08-31T14:04:46.404Z,20.77
2018-08-31T14:05:52.934Z,21.27
2018-08-31T14:06:59.691Z,21.59
2018-08-31T14:08:05.725Z,21.59
2018-08-31T14:09:11.953Z,21.64
2018-08-31T14:10:18.419Z,21.80
2018-08-31T14:11:24.916Z,21.23
2018-08-31T14:12:31.546Z,21.51
2018-08-31T14:13:37.938Z,21.77
2018-08-31T14:14:44.376Z,21.79
2018-08-31T14:15:50.140Z,21.85
2018-08-31T14:16:56.588Z,21.66
2018-08-31T14:18:02.765Z,21.17
2018-08-31T14:19:09.167Z,20.66
2018-08-31T14:20:14.948Z,20.67
2018-08-31T14:21:22.355Z,20.93
2018-08-31T14:22:29.296Z,20.78
2018-08-31T14:23:36.243Z,20.90